Time;durP1;ratioP1;P1;durP2;ratioP2;P2;SDS_P1;SDS_P2;PMS_P1;PMS_P2;Temp;Humidity;BMP_temperature;BMP_pressure;BME280_temperature;BME280_humidity;BME280_pressure;Samples;Min_cycle;Max_cycle;Signal;HPM_P1;HPM_P2
2021/12/27 00:01:56;;;;;;;23.45;15.48;;;;;;;;;;4972296;28;20038;-72
2021/12/27 00:04:22;;;;;;;25.90;16.95;;;;;;;;;;4970973;28;20034;-73
2021/12/27 00:06:48;;;;;;;28.95;18.38;;;;;;;;;;4972352;28;20042;-73
2021/12/27 00:09:14;;;;;;;23.27;16.13;;;;;;;;;;4971700;28;20042;-73
2021/12/27 00:11:40;;;;;;;28.08;18.35;;;;;;;;;;4972561;28;20042;-73
2021/12/27 00:14:06;;;;;;;26.45;19.13;;;;;;;;;;4971573;28;20054;-73
2021/12/27 00:16:33;;;;;;;30.95;22.30;;;;;;;;;;4972787;28;20035;-73
2021/12/27 00:18:59;;;;;;;26.88;18.48;;;;;;;;;;4971531;28;20050;-72
2021/12/27 00:21:25;;;;;;;31.10;21.70;;;;;;;;;;4972346;28;20085;-72
2021/12/27 00:23:51;;;;;;;26.73;17.05;;;;;;;;;;4964017;28;20034;-72
2021/12/27 00:26:17;;;;;;;28.23;18.38;;;;;;;;;;4971542;28;20707;-73
2021/12/27 00:28:43;;;;;;;27.63;19.67;;;;;;;;;;4970469;28;20042;-72
2021/12/27 00:31:09;;;;;;;28.23;19.42;;;;;;;;;;4971782;28;20035;-72
2021/12/27 00:33:35;;;;;;;28.13;19.20;;;;;;;;;;4971502;28;20037;-73
2021/12/27 00:36:01;;;;;;;32.10;18.88;;;;;;;;;;4971230;28;20046;-72
2021/12/27 00:38:27;;;;;;;23.10;17.50;;;;;;;;;;4971419;28;20181;-73
2021/12/27 00:40:53;;;;;;;20.08;13.85;;;;;;;;;;4971343;28;20109;-73
2021/12/27 00:43:19;;;;;;;22.80;16.30;;;;;;;;;;4971683;28;20547;-73
2021/12/27 00:45:46;;;;;;;26.38;17.70;;;;;;;;;;4970942;28;20035;-73
2021/12/27 00:48:12;;;;;;;15.07;9.65;;;;;;;;;;4971623;28;20031;-72
2021/12/27 00:50:38;;;;;;;11.90;7.82;;;;;;;;;;4970418;28;20050;-73
2021/12/27 00:53:04;;;;;;;13.88;7.95;;;;;;;;;;4971402;28;20035;-72
2021/12/27 00:55:30;;;;;;;16.67;10.57;;;;;;;;;;4970899;28;20073;-72
2021/12/27 00:57:56;;;;;;;17.30;10.43;;;;;;;;;;4971476;28;20042;-72
2021/12/27 01:00:23;;;;;;;19.02;12.52;;;;;;;;;;4970495;28;20446;-72
2021/12/27 01:02:49;;;;;;;18.02;10.48;;;;;;;;;;4971536;28;20385;-73
2021/12/27 01:05:15;;;;;;;19.05;12.65;;;;;;;;;;4970515;28;20081;-72
2021/12/27 01:07:42;;;;;;;19.13;13.00;;;;;;;;;;4971368;28;20034;-72
2021/12/27 01:12:48;;;;;;;28.25;14.52;;;;;;;;;;4971553;28;20045;-73
2021/12/27 01:17:42;;;;;;;17.10;10.77;;;;;;;;;;4971523;28;20087;-72
2021/12/27 01:20:10;;;;;;;23.17;13.32;;;;;;;;;;4971116;28;20113;-72
2021/12/27 01:22:36;;;;;;;23.35;13.98;;;;;;;;;;4970629;28;20042;-73
2021/12/27 01:25:02;;;;;;;24.92;17.33;;;;;;;;;;4971084;28;20070;-73
2021/12/27 01:27:28;;;;;;;24.10;14.43;;;;;;;;;;4970265;28;20046;-72
2021/12/27 01:29:54;;;;;;;23.15;15.07;;;;;;;;;;4951647;28;20027;-72
2021/12/27 01:32:21;;;;;;;32.45;21.45;;;;;;;;;;4964062;28;20062;-73
2021/12/27 01:34:47;;;;;;;30.08;19.50;;;;;;;;;;4970871;28;20031;-72
2021/12/27 01:37:17;;;;;;;30.67;18.60;;;;;;;;;;4969601;28;20142;-72
2021/12/27 01:39:43;;;;;;;23.15;15.18;;;;;;;;;;4971045;28;20026;-73
2021/12/27 01:42:09;;;;;;;34.58;20.52;;;;;;;;;;4969341;28;20118;-72
2021/12/27 01:44:35;;;;;;;22.00;14.25;;;;;;;;;;4971001;28;20031;-73
2021/12/27 01:47:01;;;;;;;22.52;17.45;;;;;;;;;;4970004;28;20054;-73
2021/12/27 01:49:27;;;;;;;22.92;16.00;;;;;;;;;;4970677;28;20031;-72
2021/12/27 01:51:53;;;;;;;26.17;17.27;;;;;;;;;;4965993;28;20046;-72
2021/12/27 01:54:19;;;;;;;22.48;15.07;;;;;;;;;;4959420;28;20468;-73
2021/12/27 01:56:45;;;;;;;19.77;13.85;;;;;;;;;;4969590;28;20891;-72
2021/12/27 01:59:11;;;;;;;20.77;13.90;;;;;;;;;;4970709;28;20532;-72
2021/12/27 02:01:37;;;;;;;16.30;11.55;;;;;;;;;;4969792;28;20121;-72
2021/12/27 02:04:03;;;;;;;18.65;11.90;;;;;;;;;;4970298;28;20034;-72
2021/12/27 02:06:29;;;;;;;15.65;10.27;;;;;;;;;;4969591;28;20112;-72
2021/12/27 02:08:56;;;;;;;23.98;15.07;;;;;;;;;;4958503;28;20030;-72
2021/12/27 02:11:22;;;;;;;17.63;10.15;;;;;;;;;;4970021;28;20035;-73
2021/12/27 02:13:48;;;;;;;16.70;10.88;;;;;;;;;;4969529;28;20596;-73
2021/12/27 02:16:16;;;;;;;13.85;9.77;;;;;;;;;;4970255;28;20064;-73
2021/12/27 02:18:44;;;;;;;15.27;9.55;;;;;;;;;;4969440;28;20034;-73
2021/12/27 02:21:10;;;;;;;15.18;9.73;;;;;;;;;;4969654;28;20549;-73
2021/12/27 02:23:38;;;;;;;17.55;10.73;;;;;;;;;;4969384;28;20077;-73
2021/12/27 02:26:05;;;;;;;18.00;9.77;;;;;;;;;;4970419;28;20411;-72
2021/12/27 02:28:31;;;;;;;20.15;13.20;;;;;;;;;;4969821;28;20022;-73
2021/12/27 02:30:57;;;;;;;27.55;15.70;;;;;;;;;;4970198;28;20027;-72
2021/12/27 02:33:23;;;;;;;24.00;15.02;;;;;;;;;;4968966;28;20051;-72
2021/12/27 02:35:51;;;;;;;20.02;12.73;;;;;;;;;;4969894;28;20035;-72
2021/12/27 02:38:18;;;;;;;17.33;8.32;;;;;;;;;;4968709;28;20038;-73
2021/12/27 02:40:45;;;;;;;18.05;9.40;;;;;;;;;;4969965;28;20038;-72
2021/12/27 02:43:15;;;;;;;13.25;8.70;;;;;;;;;;4968991;28;20057;-73
2021/12/27 02:45:42;;;;;;;9.48;5.82;;;;;;;;;;4969399;28;20157;-72
2021/12/27 02:48:09;;;;;;;11.45;6.82;;;;;;;;;;4969363;28;20058;-72
2021/12/27 02:50:36;;;;;;;9.05;4.75;;;;;;;;;;4968962;28;20039;-72
2021/12/27 02:53:03;;;;;;;15.65;5.30;;;;;;;;;;4969621;28;20130;-72
2021/12/27 02:55:29;;;;;;;10.85;6.25;;;;;;;;;;4969140;28;20042;-73
2021/12/27 02:57:55;;;;;;;9.73;5.93;;;;;;;;;;4969561;28;20438;-72
2021/12/27 03:00:27;;;;;;;12.00;6.22;;;;;;;;;;4968635;28;20114;-72
2021/12/27 03:02:54;;;;;;;13.00;8.35;;;;;;;;;;4969544;28;20030;-72
2021/12/27 03:05:20;;;;;;;14.07;8.45;;;;;;;;;;4968245;28;20100;-72
2021/12/27 03:07:49;;;;;;;22.02;12.60;;;;;;;;;;4968860;28;20034;-72
2021/12/27 03:10:16;;;;;;;22.67;12.25;;;;;;;;;;4967853;28;20035;-73
2021/12/27 03:12:43;;;;;;;26.38;15.02;;;;;;;;;;4969842;28;20046;-72
2021/12/27 03:15:10;;;;;;;17.98;8.20;;;;;;;;;;4967412;28;20793;-72
2021/12/27 03:17:37;;;;;;;11.70;6.22;;;;;;;;;;4968951;28;20035;-72
2021/12/27 03:20:06;;;;;;;10.35;6.07;;;;;;;;;;4968653;28;20039;-73
2021/12/27 03:22:32;;;;;;;11.13;6.25;;;;;;;;;;4969278;28;20085;-72
2021/12/27 03:24:58;;;;;;;10.80;6.15;;;;;;;;;;4968406;28;20084;-72
2021/12/27 03:27:24;;;;;;;7.55;4.72;;;;;;;;;;4969596;28;20430;-73
2021/12/27 03:29:50;;;;;;;9.55;4.38;;;;;;;;;;4969702;28;20082;-72
2021/12/27 03:32:18;;;;;;;12.10;5.75;;;;;;;;;;4969339;28;20130;-73
2021/12/27 03:34:54;;;;;;;28.05;15.27;;;;;;;;;;4969655;28;20055;-73
2021/12/27 03:37:21;;;;;;;24.48;14.15;;;;;;;;;;4968739;28;20035;-73
2021/12/27 03:39:47;;;;;;;40.80;22.30;;;;;;;;;;4969244;28;20042;-73
2021/12/27 03:42:15;;;;;;;44.85;24.23;;;;;;;;;;4968165;28;20043;-72
2021/12/27 03:44:41;;;;;;;25.98;14.65;;;;;;;;;;4969161;28;20998;-72
2021/12/27 03:47:07;;;;;;;19.20;11.90;;;;;;;;;;4969396;28;20525;-72
2021/12/27 03:49:33;;;;;;;16.42;8.57;;;;;;;;;;4969069;28;20070;-73
2021/12/27 03:51:59;;;;;;;16.02;9.60;;;;;;;;;;4967861;28;20054;-72
2021/12/27 03:54:25;;;;;;;13.45;7.70;;;;;;;;;;4969366;28;20026;-73
2021/12/27 03:56:51;;;;;;;17.55;10.07;;;;;;;;;;4969149;28;20055;-73
2021/12/27 03:59:23;;;;;;;13.38;5.95;;;;;;;;;;4969151;28;20572;-73
2021/12/27 04:01:49;;;;;;;15.00;9.10;;;;;;;;;;4968552;28;20089;-73
2021/12/27 04:04:15;;;;;;;43.38;22.60;;;;;;;;;;4969783;28;20655;-73
2021/12/27 04:06:41;;;;;;;13.48;8.13;;;;;;;;;;4972492;28;20046;-72
2021/12/27 04:09:07;;;;;;;12.23;7.72;;;;;;;;;;4972342;28;20043;-72
2021/12/27 04:11:33;;;;;;;9.70;5.43;;;;;;;;;;4972339;28;20110;-72
2021/12/27 04:14:02;;;;;;;12.63;6.05;;;;;;;;;;4972094;28;20035;-72
2021/12/27 04:16:28;;;;;;;11.98;6.15;;;;;;;;;;4972047;28;20027;-73
2021/12/27 04:18:54;;;;;;;9.73;5.55;;;;;;;;;;4971231;28;20043;-72
2021/12/27 04:21:20;;;;;;;10.90;5.72;;;;;;;;;;4972089;28;20560;-72
2021/12/27 04:23:46;;;;;;;8.63;5.15;;;;;;;;;;4972350;28;20038;-72
2021/12/27 04:26:12;;;;;;;10.10;6.10;;;;;;;;;;4972015;28;20073;-73
2021/12/27 04:28:38;;;;;;;9.05;5.65;;;;;;;;;;4972059;28;20066;-72
2021/12/27 04:31:04;;;;;;;12.32;8.30;;;;;;;;;;4972178;28;20066;-73
2021/12/27 04:33:30;;;;;;;13.15;7.60;;;;;;;;;;4969564;28;20030;-73
2021/12/27 04:35:56;;;;;;;10.07;4.72;;;;;;;;;;4972088;28;20042;-73
2021/12/27 04:38:22;;;;;;;8.82;4.75;;;;;;;;;;4971858;28;20031;-72
2021/12/27 04:40:49;;;;;;;9.65;5.32;;;;;;;;;;4971702;28;20038;-72
2021/12/27 04:43:17;;;;;;;7.38;4.75;;;;;;;;;;4971519;28;20030;-72
2021/12/27 04:45:44;;;;;;;6.60;4.20;;;;;;;;;;4971446;28;20034;-72
2021/12/27 04:48:10;;;;;;;8.90;4.07;;;;;;;;;;4971022;28;20046;-72
2021/12/27 04:50:37;;;;;;;8.13;4.50;;;;;;;;;;4971772;28;20431;-72
2021/12/27 04:53:03;;;;;;;5.97;4.20;;;;;;;;;;4970117;28;20086;-72
2021/12/27 04:55:30;;;;;;;7.50;4.05;;;;;;;;;;4971053;28;20071;-72
2021/12/27 04:57:56;;;;;;;8.63;4.60;;;;;;;;;;4970959;28;20084;-72
2021/12/27 05:00:22;;;;;;;13.18;7.55;;;;;;;;;;4971193;28;20045;-72
2021/12/27 05:02:48;;;;;;;15.27;8.15;;;;;;;;;;4969895;28;20023;-72
2021/12/27 05:05:15;;;;;;;12.35;7.72;;;;;;;;;;4970874;28;20046;-72
2021/12/27 05:07:41;;;;;;;10.65;5.15;;;;;;;;;;4970579;28;20026;-72
2021/12/27 05:10:07;;;;;;;11.27;7.50;;;;;;;;;;4970962;28;20053;-73
2021/12/27 05:12:33;;;;;;;14.43;6.50;;;;;;;;;;4961921;28;20377;-72
2021/12/27 05:14:59;;;;;;;14.60;6.38;;;;;;;;;;4970944;28;20066;-72
2021/12/27 05:17:25;;;;;;;12.00;8.05;;;;;;;;;;4969127;28;20030;-72
2021/12/27 05:19:51;;;;;;;23.52;16.00;;;;;;;;;;4971124;28;20043;-72
2021/12/27 05:22:17;;;;;;;17.83;11.82;;;;;;;;;;4970824;28;20147;-72
2021/12/27 05:24:43;;;;;;;15.38;9.20;;;;;;;;;;4970792;28;20053;-73
2021/12/27 05:27:09;;;;;;;16.23;8.88;;;;;;;;;;4971019;28;20394;-73
2021/12/27 05:29:36;;;;;;;12.65;7.38;;;;;;;;;;4970629;28;20046;-72
2021/12/27 05:32:02;;;;;;;12.15;7.00;;;;;;;;;;4970821;28;20584;-72
2021/12/27 05:34:29;;;;;;;12.45;7.32;;;;;;;;;;4970365;28;20038;-72
2021/12/27 05:36:55;;;;;;;14.38;8.30;;;;;;;;;;4970904;28;20054;-72
2021/12/27 05:39:22;;;;;;;15.90;8.02;;;;;;;;;;4969605;28;20374;-73
2021/12/27 05:41:48;;;;;;;12.15;6.55;;;;;;;;;;4970887;28;20039;-72
2021/12/27 05:44:15;;;;;;;11.32;6.45;;;;;;;;;;4969863;28;20065;-72
2021/12/27 05:46:41;;;;;;;11.93;7.20;;;;;;;;;;4970352;28;20062;-72
2021/12/27 05:49:07;;;;;;;12.60;6.90;;;;;;;;;;4969880;28;20089;-73
2021/12/27 05:51:33;;;;;;;13.98;6.57;;;;;;;;;;4970578;28;20446;-72
2021/12/27 05:53:59;;;;;;;10.60;6.95;;;;;;;;;;4969590;28;20034;-73
2021/12/27 05:56:25;;;;;;;11.35;7.20;;;;;;;;;;4970416;28;20035;-72
2021/12/27 05:58:51;;;;;;;13.13;8.30;;;;;;;;;;4968683;28;20042;-72
2021/12/27 06:01:17;;;;;;;11.63;7.22;;;;;;;;;;4969404;28;20545;-73
2021/12/27 06:03:43;;;;;;;12.93;7.80;;;;;;;;;;4970370;28;20043;-73
2021/12/27 06:06:10;;;;;;;10.73;6.20;;;;;;;;;;4968917;28;20098;-72
2021/12/27 06:08:36;;;;;;;14.52;7.00;;;;;;;;;;4970281;28;20077;-72
2021/12/27 06:11:02;;;;;;;11.80;7.05;;;;;;;;;;4969468;28;20814;-73
2021/12/27 06:13:28;;;;;;;14.30;7.40;;;;;;;;;;4970222;28;20026;-72
2021/12/27 06:15:54;;;;;;;17.50;8.88;;;;;;;;;;4970110;28;20046;-73
2021/12/27 06:18:20;;;;;;;18.30;10.05;;;;;;;;;;4969334;28;20087;-72
2021/12/27 06:20:47;;;;;;;20.55;10.45;;;;;;;;;;4969479;28;20066;-72
2021/12/27 06:23:13;;;;;;;13.32;8.55;;;;;;;;;;4969380;28;20658;-72
2021/12/27 06:25:39;;;;;;;11.77;7.50;;;;;;;;;;4970461;28;20127;-72
2021/12/27 06:28:05;;;;;;;11.57;7.45;;;;;;;;;;4968665;28;20035;-72
2021/12/27 06:30:31;;;;;;;15.43;8.90;;;;;;;;;;4976402;28;20101;-72
2021/12/27 06:32:57;;;;;;;15.82;9.45;;;;;;;;;;4968506;28;21010;-72
2021/12/27 06:35:23;;;;;;;18.65;10.35;;;;;;;;;;4970342;28;20035;-73
2021/12/27 06:37:49;;;;;;;19.55;12.50;;;;;;;;;;4965521;28;20054;-73
2021/12/27 06:40:16;;;;;;;16.23;9.52;;;;;;;;;;4960381;28;20043;-72
2021/12/27 06:42:42;;;;;;;15.45;10.27;;;;;;;;;;4967660;28;20655;-72
2021/12/27 06:45:09;;;;;;;17.02;11.13;;;;;;;;;;4966198;28;20093;-72
2021/12/27 06:47:35;;;;;;;19.48;11.80;;;;;;;;;;4969009;28;20092;-72
2021/12/27 06:50:01;;;;;;;22.75;14.00;;;;;;;;;;4967898;28;20071;-71
2021/12/27 06:52:27;;;;;;;16.45;10.18;;;;;;;;;;4968188;28;20053;-72
2021/12/27 06:54:53;;;;;;;14.70;9.90;;;;;;;;;;4969387;28;20066;-72
2021/12/27 06:57:20;;;;;;;25.92;15.20;;;;;;;;;;4969020;28;20058;-72
2021/12/27 06:59:46;;;;;;;16.30;11.32;;;;;;;;;;4969373;28;20042;-72
2021/12/27 07:02:12;;;;;;;16.08;11.52;;;;;;;;;;4968998;28;20445;-72
2021/12/27 07:04:38;;;;;;;17.45;10.82;;;;;;;;;;4968675;28;20039;-71
2021/12/27 07:07:04;;;;;;;19.48;13.68;;;;;;;;;;4970949;28;20536;-72
2021/12/27 07:09:30;;;;;;;17.60;11.85;;;;;;;;;;4969181;28;20034;-72
2021/12/27 07:11:56;;;;;;;43.00;26.80;;;;;;;;;;4965912;28;20035;-72
2021/12/27 07:14:22;;;;;;;38.05;25.45;;;;;;;;;;4967787;28;20058;-72
2021/12/27 07:16:49;;;;;;;40.85;26.10;;;;;;;;;;4962944;28;20497;-72
2021/12/27 07:19:15;;;;;;;35.13;20.98;;;;;;;;;;4967598;28;21334;-72
2021/12/27 07:21:41;;;;;;;31.73;18.88;;;;;;;;;;4966472;28;20039;-72
2021/12/27 07:24:07;;;;;;;21.15;14.55;;;;;;;;;;4967303;28;20625;-72
2021/12/27 07:26:33;;;;;;;17.40;11.52;;;;;;;;;;4963160;28;20089;-72
2021/12/27 07:28:59;;;;;;;14.05;10.20;;;;;;;;;;4965287;28;20105;-72
2021/12/27 07:31:25;;;;;;;20.40;12.63;;;;;;;;;;4968484;28;20417;-72
2021/12/27 07:33:52;;;;;;;19.13;13.18;;;;;;;;;;4965355;28;20105;-72
2021/12/27 07:36:18;;;;;;;18.88;12.68;;;;;;;;;;4965526;28;20034;-72
2021/12/27 07:38:44;;;;;;;19.77;12.18;;;;;;;;;;4964943;28;20089;-72
2021/12/27 07:41:10;;;;;;;18.10;10.48;;;;;;;;;;4969823;28;20049;-72
2021/12/27 07:43:36;;;;;;;15.55;9.40;;;;;;;;;;4952030;28;20042;-72
2021/12/27 07:46:03;;;;;;;17.48;11.27;;;;;;;;;;4967870;28;20484;-73
2021/12/27 07:48:29;;;;;;;20.25;12.50;;;;;;;;;;4969726;28;20035;-72
2021/12/27 07:50:55;;;;;;;21.60;12.38;;;;;;;;;;4970767;28;20066;-72
2021/12/27 07:53:21;;;;;;;16.20;11.57;;;;;;;;;;4970529;28;20478;-72
2021/12/27 07:55:47;;;;;;;17.92;11.23;;;;;;;;;;4971488;28;20039;-72
2021/12/27 07:58:13;;;;;;;20.75;13.15;;;;;;;;;;4971051;28;20039;-73
2021/12/27 08:00:40;;;;;;;20.42;12.95;;;;;;;;;;4971485;28;20038;-72
2021/12/27 08:03:06;;;;;;;20.88;14.32;;;;;;;;;;4970677;28;20118;-73
2021/12/27 08:05:32;;;;;;;28.13;16.90;;;;;;;;;;4971699;28;20038;-76
2021/12/27 08:07:59;;;;;;;47.47;36.20;;;;;;;;;;4972148;28;20057;-77
2021/12/27 08:10:25;;;;;;;58.10;42.97;;;;;;;;;;4974378;28;20382;-80
2021/12/27 08:12:51;;;;;;;38.90;29.15;;;;;;;;;;4977113;28;20027;-80
2021/12/27 08:15:17;;;;;;;61.08;43.78;;;;;;;;;;4974649;28;20430;-80
2021/12/27 08:17:43;;;;;;;46.75;33.22;;;;;;;;;;4972013;28;20077;-81
2021/12/27 08:20:09;;;;;;;43.10;34.80;;;;;;;;;;4971984;28;20113;-81
2021/12/27 08:22:38;;;;;;;38.70;27.75;;;;;;;;;;4956271;28;20023;-82
2021/12/27 08:25:07;;;;;;;50.10;40.13;;;;;;;;;;4971627;28;20454;-82
2021/12/27 08:27:33;;;;;;;55.85;38.83;;;;;;;;;;4972564;28;20042;-82
2021/12/27 08:30:04;;;;;;;38.03;28.40;;;;;;;;;;4973248;28;20062;-81
2021/12/27 08:32:30;;;;;;;47.78;35.10;;;;;;;;;;4951416;28;20042;-80
2021/12/27 08:34:56;;;;;;;35.40;29.65;;;;;;;;;;4970637;28;20034;-80
2021/12/27 08:37:22;;;;;;;42.88;33.40;;;;;;;;;;4972480;28;20105;-79
2021/12/27 08:39:48;;;;;;;43.22;33.33;;;;;;;;;;4971357;28;20043;-83
2021/12/27 08:42:14;;;;;;;40.78;28.00;;;;;;;;;;4973552;28;20110;-83
2021/12/27 08:44:40;;;;;;;30.38;22.55;;;;;;;;;;4973344;28;20158;-82
2021/12/27 08:47:07;;;;;;;30.40;22.02;;;;;;;;;;4969588;28;20042;-83
2021/12/27 08:49:32;;;;;;;25.48;17.55;;;;;;;;;;4973190;28;20027;-83
2021/12/27 08:51:59;;;;;;;30.58;20.85;;;;;;;;;;4974515;28;20038;-83
2021/12/27 08:54:25;;;;;;;29.50;22.13;;;;;;;;;;4969859;28;20137;-83
2021/12/27 08:56:51;;;;;;;38.20;26.92;;;;;;;;;;4974244;28;20161;-82
2021/12/27 08:59:17;;;;;;;42.63;29.92;;;;;;;;;;4973546;28;20031;-82
2021/12/27 09:01:43;;;;;;;25.52;17.58;;;;;;;;;;4973489;28;20742;-82
2021/12/27 09:04:09;;;;;;;31.67;21.67;;;;;;;;;;4973642;28;20170;-79
2021/12/27 09:06:35;;;;;;;26.65;19.60;;;;;;;;;;4972942;28;20038;-79
2021/12/27 09:09:02;;;;;;;33.33;27.10;;;;;;;;;;4973609;28;20074;-80
2021/12/27 09:11:28;;;;;;;43.00;34.55;;;;;;;;;;4972546;28;20035;-80
2021/12/27 09:13:54;;;;;;;31.08;25.67;;;;;;;;;;4973172;28;20027;-81
2021/12/27 09:16:20;;;;;;;33.50;21.23;;;;;;;;;;4973039;28;20473;-80
2021/12/27 09:18:46;;;;;;;24.45;19.42;;;;;;;;;;4973760;28;20413;-80
2021/12/27 09:21:12;;;;;;;27.38;20.92;;;;;;;;;;4972273;28;20046;-80
2021/12/27 09:23:38;;;;;;;28.83;23.17;;;;;;;;;;4968852;28;20070;-81
2021/12/27 09:26:04;;;;;;;29.83;22.55;;;;;;;;;;4972624;28;20073;-80
2021/12/27 09:28:30;;;;;;;25.58;16.50;;;;;;;;;;4967147;28;20058;-80
2021/12/27 09:30:57;;;;;;;29.30;21.77;;;;;;;;;;4970112;28;20031;-81
2021/12/27 09:33:23;;;;;;;25.83;19.90;;;;;;;;;;4970275;28;20156;-80
2021/12/27 09:35:49;;;;;;;27.02;18.92;;;;;;;;;;4969252;28;20035;-81
2021/12/27 09:38:15;;;;;;;35.58;23.13;;;;;;;;;;4972132;28;20378;-79
2021/12/27 09:40:41;;;;;;;30.90;22.55;;;;;;;;;;4972383;28;20046;-81
2021/12/27 09:43:08;;;;;;;31.08;20.40;;;;;;;;;;4972641;28;20110;-82
2021/12/27 09:45:34;;;;;;;46.10;34.35;;;;;;;;;;4972283;28;20038;-80
2021/12/27 09:48:00;;;;;;;32.92;24.73;;;;;;;;;;4969974;28;20039;-80
2021/12/27 09:50:29;;;;;;;33.70;27.13;;;;;;;;;;4971894;28;20046;-83
2021/12/27 09:52:55;;;;;;;44.95;34.40;;;;;;;;;;4971409;28;20031;-82
2021/12/27 09:55:22;;;;;;;45.55;34.17;;;;;;;;;;4969900;28;20109;-82
2021/12/27 09:57:48;;;;;;;35.35;23.88;;;;;;;;;;4972082;28;20034;-81
2021/12/27 10:00:14;;;;;;;37.58;26.77;;;;;;;;;;4972153;28;20045;-81
2021/12/27 10:02:40;;;;;;;35.55;26.02;;;;;;;;;;4971006;28;20041;-82
2021/12/27 10:05:07;;;;;;;39.58;27.80;;;;;;;;;;4967610;28;20034;-82
2021/12/27 10:07:35;;;;;;;27.25;21.75;;;;;;;;;;4972650;28;20031;-82
2021/12/27 10:10:01;;;;;;;26.70;20.55;;;;;;;;;;4963303;28;20030;-84
2021/12/27 10:12:27;;;;;;;32.17;23.63;;;;;;;;;;4955482;28;20030;-84
2021/12/27 10:14:55;;;;;;;32.95;24.33;;;;;;;;;;4968715;28;20035;-83
2021/12/27 10:17:23;;;;;;;57.17;39.70;;;;;;;;;;4963397;28;20081;-82
2021/12/27 10:19:49;;;;;;;31.65;22.90;;;;;;;;;;4969581;28;20039;-82
2021/12/27 10:22:15;;;;;;;32.00;22.40;;;;;;;;;;4972286;28;20077;-83
2021/12/27 10:24:41;;;;;;;25.50;18.55;;;;;;;;;;4969360;28;20031;-82
2021/12/27 10:27:07;;;;;;;17.30;11.95;;;;;;;;;;4972375;28;20114;-82
2021/12/27 10:29:35;;;;;;;17.38;13.05;;;;;;;;;;4971813;28;20023;-81
2021/12/27 10:32:04;;;;;;;18.33;14.25;;;;;;;;;;4971228;28;20126;-82
2021/12/27 10:34:43;;;;;;;23.65;18.63;;;;;;;;;;4971978;28;20524;-83
2021/12/27 10:37:12;;;;;;;22.73;15.68;;;;;;;;;;4971085;28;20035;-83
2021/12/27 10:39:56;;;;;;;20.35;14.95;;;;;;;;;;4971054;28;20034;-83
2021/12/27 10:42:33;;;;;;;25.38;19.90;;;;;;;;;;4962120;28;20061;-84
2021/12/27 10:45:19;;;;;;;37.33;29.90;;;;;;;;;;4953976;28;20157;-83
2021/12/27 10:47:49;;;;;;;37.17;27.08;;;;;;;;;;4965447;28;20031;-83
2021/12/27 10:50:17;;;;;;;29.30;21.80;;;;;;;;;;4970818;28;20039;-84
2021/12/27 10:52:55;;;;;;;27.15;18.27;;;;;;;;;;4971062;28;20617;-82
2021/12/27 10:55:26;;;;;;;23.75;15.75;;;;;;;;;;4970696;28;20041;-84
2021/12/27 10:57:53;;;;;;;17.67;12.77;;;;;;;;;;4970127;28;20411;-84
2021/12/27 11:00:19;;;;;;;22.83;15.93;;;;;;;;;;4970834;28;20104;-84
2021/12/27 11:02:45;;;;;;;22.63;16.63;;;;;;;;;;4954123;28;20038;-83
2021/12/27 11:05:12;;;;;;;23.80;17.10;;;;;;;;;;4971073;28;20046;-83
2021/12/27 11:07:40;;;;;;;21.27;15.68;;;;;;;;;;4971368;28;20030;-84
2021/12/27 11:10:06;;;;;;;23.17;16.13;;;;;;;;;;4970452;28;20046;-83
2021/12/27 11:12:32;;;;;;;18.80;14.07;;;;;;;;;;4971040;28;20023;-83
2021/12/27 11:14:58;;;;;;;20.58;14.57;;;;;;;;;;4973168;28;20034;-85
2021/12/27 11:17:25;;;;;;;17.33;13.48;;;;;;;;;;4957331;28;20033;-83
2021/12/27 11:19:51;;;;;;;19.70;14.27;;;;;;;;;;4952818;28;20512;-86
2021/12/27 11:22:17;;;;;;;20.38;15.75;;;;;;;;;;4972461;28;20019;-86
2021/12/27 11:24:44;;;;;;;19.23;13.90;;;;;;;;;;4957562;28;20043;-85
2021/12/27 11:27:11;;;;;;;18.85;14.45;;;;;;;;;;4975313;28;20069;-84
2021/12/27 11:29:37;;;;;;;25.05;18.75;;;;;;;;;;4959156;28;20035;-85
2021/12/27 11:32:17;;;;;;;22.33;17.70;;;;;;;;;;4954013;28;20717;-84
2021/12/27 11:34:56;;;;;;;30.02;21.10;;;;;;;;;;4973883;28;20035;-85
2021/12/27 11:37:34;;;;;;;23.88;18.98;;;;;;;;;;4968056;28;20203;-83
2021/12/27 11:40:05;;;;;;;30.27;21.45;;;;;;;;;;4956407;28;20042;-83
2021/12/27 11:42:51;;;;;;;28.88;21.23;;;;;;;;;;4974641;28;20035;-83
2021/12/27 11:45:36;;;;;;;30.70;23.77;;;;;;;;;;4955507;28;20133;-84
2021/12/27 11:48:06;;;;;;;31.40;22.25;;;;;;;;;;4974791;28;20034;-83
2021/12/27 11:50:32;;;;;;;30.23;22.85;;;;;;;;;;4972398;28;20039;-83
2021/12/27 11:53:06;;;;;;;23.58;17.40;;;;;;;;;;4957416;28;20033;-85
2021/12/27 11:55:39;;;;;;;22.63;16.77;;;;;;;;;;4952106;28;20038;-84
2021/12/27 11:58:05;;;;;;;21.95;16.67;;;;;;;;;;4958338;28;20113;-83
2021/12/27 12:00:32;;;;;;;22.70;17.30;;;;;;;;;;4975654;28;20074;-84
2021/12/27 12:03:01;;;;;;;32.97;22.90;;;;;;;;;;4975636;28;20034;-84
2021/12/27 12:05:39;;;;;;;37.50;26.77;;;;;;;;;;4957993;28;20042;-85
2021/12/27 12:08:05;;;;;;;39.15;28.17;;;;;;;;;;4955794;28;20110;-84
2021/12/27 12:10:31;;;;;;;45.83;35.85;;;;;;;;;;4957540;28;20063;-84
2021/12/27 12:13:17;;;;;;;44.75;36.17;;;;;;;;;;4957470;28;20022;-82
2021/12/27 12:16:02;;;;;;;52.35;40.00;;;;;;;;;;4972623;28;20143;-83
2021/12/27 12:18:29;;;;;;;37.45;31.33;;;;;;;;;;4952528;28;20030;-84
2021/12/27 12:20:55;;;;;;;40.08;31.15;;;;;;;;;;4975921;28;20478;-84
2021/12/27 12:23:21;;;;;;;30.85;24.42;;;;;;;;;;4971882;28;20033;-83
2021/12/27 12:25:47;;;;;;;36.40;26.77;;;;;;;;;;4973608;28;20054;-83
2021/12/27 12:28:15;;;;;;;30.10;23.67;;;;;;;;;;4974744;28;20062;-84
2021/12/27 12:30:48;;;;;;;31.33;23.95;;;;;;;;;;4974710;28;20125;-82
2021/12/27 12:33:14;;;;;;;29.55;20.00;;;;;;;;;;4973877;28;20348;-83
2021/12/27 12:35:42;;;;;;;26.95;21.02;;;;;;;;;;4956146;28;20034;-83
2021/12/27 12:38:08;;;;;;;23.35;18.50;;;;;;;;;;4953507;28;20042;-84
2021/12/27 12:40:34;;;;;;;24.20;19.23;;;;;;;;;;4964168;28;20402;-83
2021/12/27 12:43:00;;;;;;;27.17;19.45;;;;;;;;;;4964682;28;20035;-83
2021/12/27 12:45:31;;;;;;;24.27;17.77;;;;;;;;;;4968898;28;20042;-84
2021/12/27 12:47:57;;;;;;;23.30;18.88;;;;;;;;;;4973874;28;20740;-83
2021/12/27 12:50:23;;;;;;;33.85;28.77;;;;;;;;;;4973599;28;20066;-84
2021/12/27 12:52:57;;;;;;;33.30;24.08;;;;;;;;;;4970819;28;20037;-83
2021/12/27 12:55:27;;;;;;;33.67;28.50;;;;;;;;;;4972089;28;20125;-83
2021/12/27 12:57:54;;;;;;;33.53;27.98;;;;;;;;;;4973097;28;20031;-83
2021/12/27 13:00:24;;;;;;;95.00;79.22;;;;;;;;;;4977604;28;20035;-83
2021/12/27 13:02:50;;;;;;;127.97;113.82;;;;;;;;;;4956572;28;20062;-83
2021/12/27 13:05:19;;;;;;;102.03;82.72;;;;;;;;;;4973280;28;20474;-83
2021/12/27 13:07:47;;;;;;;84.38;65.93;;;;;;;;;;4972483;28;20039;-83
2021/12/27 13:10:15;;;;;;;59.55;47.63;;;;;;;;;;4968810;28;20027;-83
2021/12/27 13:12:41;;;;;;;44.65;35.00;;;;;;;;;;4974665;28;20110;-84
2021/12/27 13:15:12;;;;;;;54.13;42.92;;;;;;;;;;4957448;28;20461;-82
2021/12/27 13:17:39;;;;;;;57.92;45.05;;;;;;;;;;4967897;28;20027;-82
2021/12/27 13:20:05;;;;;;;55.33;44.85;;;;;;;;;;4959276;28;20445;-83
2021/12/27 13:22:57;;;;;;;42.80;34.05;;;;;;;;;;4956200;28;20038;-84
2021/12/27 13:25:32;;;;;;;48.60;34.83;;;;;;;;;;4952556;28;20146;-83
2021/12/27 13:28:04;;;;;;;42.45;31.95;;;;;;;;;;4953996;28;20031;-84
2021/12/27 13:30:30;;;;;;;42.63;32.92;;;;;;;;;;4955275;28;20034;-83
2021/12/27 13:32:56;;;;;;;50.40;39.40;;;;;;;;;;4956263;28;20046;-83
2021/12/27 13:35:22;;;;;;;41.10;32.55;;;;;;;;;;4972449;28;20043;-83
2021/12/27 13:37:48;;;;;;;55.80;40.53;;;;;;;;;;4948573;28;20027;-83
2021/12/27 13:40:15;;;;;;;67.75;47.17;;;;;;;;;;4971373;28;20039;-83
2021/12/27 13:42:42;;;;;;;39.65;29.10;;;;;;;;;;4974078;28;20038;-83
2021/12/27 13:45:09;;;;;;;42.83;30.02;;;;;;;;;;4972775;28;20486;-84
2021/12/27 13:47:35;;;;;;;33.38;22.67;;;;;;;;;;4972924;28;20023;-83
2021/12/27 13:50:01;;;;;;;36.70;28.25;;;;;;;;;;4973718;28;20951;-84
2021/12/27 13:52:27;;;;;;;36.42;28.23;;;;;;;;;;4972474;28;20030;-83
2021/12/27 13:54:54;;;;;;;37.20;28.25;;;;;;;;;;4971855;28;20078;-82
2021/12/27 13:57:31;;;;;;;43.28;35.83;;;;;;;;;;4973147;28;20037;-83
2021/12/27 13:59:57;;;;;;;75.90;58.33;;;;;;;;;;4972892;28;20413;-83
2021/12/27 14:02:23;;;;;;;51.38;43.00;;;;;;;;;;4973382;28;20027;-82
2021/12/27 14:05:07;;;;;;;51.10;41.40;;;;;;;;;;4972624;28;20129;-82
2021/12/27 14:07:34;;;;;;;103.65;74.47;;;;;;;;;;4972751;28;20034;-82
2021/12/27 14:10:00;;;;;;;77.05;54.50;;;;;;;;;;4972262;28;20043;-82
2021/12/27 14:12:30;;;;;;;56.92;42.90;;;;;;;;;;4972564;28;20030;-83
2021/12/27 14:15:01;;;;;;;49.40;42.20;;;;;;;;;;4972903;28;20031;-83
2021/12/27 14:17:28;;;;;;;57.22;38.65;;;;;;;;;;4973400;28;20105;-83
2021/12/27 14:20:13;;;;;;;58.40;43.30;;;;;;;;;;4972746;28;20122;-82
2021/12/27 14:22:42;;;;;;;49.22;32.55;;;;;;;;;;4972911;28;20039;-83
2021/12/27 14:25:09;;;;;;;58.55;41.63;;;;;;;;;;4971707;28;20039;-83
2021/12/27 14:27:44;;;;;;;59.08;39.33;;;;;;;;;;4970991;28;20023;-83